Time;durP1;ratioP1;P1;durP2;ratioP2;P2;SDS_P1;SDS_P2;PMS_P1;PMS_P2;Temp;Humidity;BMP_temperature;BMP_pressure;BME280_temperature;BME280_humidity;BME280_pressure;Samples;Min_cycle;Max_cycle;Signal;HPM_P1;HPM_P2
2023/09/16 00:01:25;;;;;;;4.72;2.92;;;;;;;15.01;64.02;98046.47;10418967;28;20171;-63
2023/09/16 00:06:46;;;;;;;4.85;3.17;;;;;;;14.89;64.39;98057.03;10428351;28;20083;-63
2023/09/16 00:12:06;;;;;;;5.07;2.80;;;;;;;14.82;64.54;98055.22;10432523;28;20168;-63
2023/09/16 00:17:27;;;;;;;4.78;3.17;;;;;;;14.76;64.89;98054.88;10401067;28;20123;-63
2023/09/16 00:22:51;;;;;;;4.40;2.72;;;;;;;14.75;65.03;98048.53;10419330;28;20091;-63
2023/09/16 00:28:12;;;;;;;8.55;3.22;;;;;;;14.71;65.28;98053.19;10429617;28;20113;-63
2023/09/16 00:33:32;;;;;;;4.03;2.72;;;;;;;14.66;65.33;98045.88;10407947;28;20077;-62
2023/09/16 00:38:53;;;;;;;3.72;2.72;;;;;;;14.62;65.75;98045.66;10424425;28;20069;-62
2023/09/16 00:44:14;;;;;;;4.82;2.90;;;;;;;14.56;65.56;98041.16;10427245;28;20083;-63
2023/09/16 00:49:34;;;;;;;4.10;2.92;;;;;;;14.53;65.95;98036.78;10444224;28;20120;-63
2023/09/16 00:54:55;;;;;;;5.90;3.28;;;;;;;14.52;66.04;98029.69;10415193;28;20608;-63
2023/09/16 01:00:17;;;;;;;9.07;2.95;;;;;;;14.47;66.25;98032.88;10392830;28;20041;-63
2023/09/16 01:05:38;;;;;;;4.43;3.15;;;;;;;14.47;66.33;98035.69;10379894;28;20084;-63
2023/09/16 01:10:59;;;;;;;5.32;3.40;;;;;;;14.41;66.79;98027.63;10367385;28;20124;-63
2023/09/16 01:16:41;;;;;;;5.80;3.60;;;;;;;14.50;67.18;98023.97;10388603;28;20050;-63
2023/09/16 01:22:02;;;;;;;4.97;3.83;;;;;;;14.61;68.12;98016.84;10415383;28;20042;-63
2023/09/16 01:27:23;;;;;;;6.40;3.78;;;;;;;14.68;66.97;98023.53;10376559;28;20423;-62
2023/09/16 01:33:08;;;;;;;7.05;4.38;;;;;;;14.68;66.99;98013.03;10411254;28;20480;-63
2023/09/16 01:38:31;;;;;;;7.03;4.18;;;;;;;14.66;68.26;98017.78;10416986;28;20049;-63
2023/09/16 01:43:52;;;;;;;6.10;4.32;;;;;;;14.59;68.91;98009.03;10386154;28;20129;-63
2023/09/16 01:49:12;;;;;;;7.63;4.18;;;;;;;14.66;67.51;98009.34;10390787;28;20057;-63
2023/09/16 01:54:34;;;;;;;6.93;4.10;;;;;;;14.75;67.57;98011.28;10419161;28;20073;-63
2023/09/16 01:59:55;;;;;;;8.80;4.20;;;;;;;14.84;67.71;98008.28;10402682;28;20053;-63
2023/09/16 02:05:16;;;;;;;7.18;5.20;;;;;;;14.92;68.32;98004.47;10404627;28;20055;-63
2023/09/16 02:10:37;;;;;;;6.75;4.55;;;;;;;14.94;67.62;97985.63;10438604;28;20544;-62
2023/09/16 02:15:59;;;;;;;11.40;5.38;;;;;;;14.94;67.46;97990.53;10442743;28;20151;-63
2023/09/16 02:21:22;;;;;;;9.05;4.90;;;;;;;15.02;68.75;97991.69;10430412;28;20089;-63
2023/09/16 02:26:43;;;;;;;7.35;5.13;;;;;;;15.04;68.81;97993.88;10443731;28;20108;-63
2023/09/16 02:32:04;;;;;;;7.47;5.35;;;;;;;14.96;68.26;97991.38;10458890;28;20052;-62
2023/09/16 02:37:25;;;;;;;6.72;5.28;;;;;;;14.87;69.08;97984.59;10458550;28;20398;-63
2023/09/16 02:42:46;;;;;;;6.47;4.90;;;;;;;14.81;69.65;97994.75;10443266;28;20080;-63
2023/09/16 02:48:07;;;;;;;10.23;5.90;;;;;;;14.79;70.65;97992.56;10429593;28;20052;-62
2023/09/16 02:53:28;;;;;;;6.85;4.97;;;;;;;14.76;70.54;97982.56;10443235;28;20431;-63
2023/09/16 02:58:49;;;;;;;6.60;5.15;;;;;;;14.80;70.73;97984.88;10443046;28;20463;-63
2023/09/16 03:04:10;;;;;;;9.85;5.22;;;;;;;14.75;71.80;97981.09;10402901;28;20056;-63
2023/09/16 03:09:32;;;;;;;6.90;5.07;;;;;;;14.75;70.91;97963.50;10428191;28;20086;-63
2023/09/16 03:14:56;;;;;;;;;;;;;;;14.75;71.28;97977.56;10442677;28;20049;-63
2023/09/16 03:20:17;;;;;;;7.85;5.78;;;;;;;14.82;70.71;97973.75;10428384;28;20430;-63
2023/09/16 03:25:39;;;;;;;6.97;4.57;;;;;;;14.78;71.29;97959.47;10442233;28;20065;-63
2023/09/16 03:31:02;;;;;;;8.93;5.80;;;;;;;14.75;71.44;97955.81;10430835;28;20041;-66
2023/09/16 03:36:23;;;;;;;7.57;4.88;;;;;;;14.70;71.38;97959.03;10444382;28;20053;-63
2023/09/16 03:41:44;;;;;;;7.28;5.32;;;;;;;14.63;72.29;97960.03;10447708;28;20052;-63
2023/09/16 03:47:09;;;;;;;7.70;5.00;;;;;;;14.49;72.72;97949.50;10435286;28;20041;-63
2023/09/16 03:52:31;;;;;;;6.63;4.68;;;;;;;14.36;72.03;97944.50;10417233;28;20480;-62
2023/09/16 03:57:53;;;;;;;8.05;4.47;;;;;;;14.27;72.60;97946.13;10408426;28;20432;-63
2023/09/16 04:03:13;;;;;;;8.02;5.45;;;;;;;14.22;73.54;97952.13;10441366;28;20049;-62
2023/09/16 04:08:36;;;;;;;6.78;5.05;;;;;;;14.15;73.68;97936.28;10441099;28;20069;-62
2023/09/16 04:14:02;;;;;;;8.32;4.78;;;;;;;14.08;73.37;97949.25;10441100;28;20110;-62
2023/09/16 04:19:23;;;;;;;6.38;4.72;;;;;;;14.03;73.45;97951.09;10457353;28;20459;-62
2023/09/16 04:24:45;;;;;;;7.38;4.75;;;;;;;14.00;73.93;97952.34;10448980;28;20045;-63
2023/09/16 04:30:08;;;;;;;5.90;4.40;;;;;;;14.00;74.02;97949.53;10448649;28;20076;-63
2023/09/16 04:35:29;;;;;;;10.30;4.50;;;;;;;13.96;75.11;97960.50;10448359;28;20102;-62
2023/09/16 04:40:50;;;;;;;4.32;3.70;;;;;;;13.92;74.02;97957.47;10463472;28;20083;-63
2023/09/16 04:46:11;;;;;;;6.10;3.78;;;;;;;13.97;74.33;97964.03;10447593;28;20111;-62
2023/09/16 04:51:38;;;;;;;7.07;3.97;;;;;;;14.19;74.64;97961.81;10447704;28;20571;-63
2023/09/16 04:57:02;;;;;;;6.70;4.05;;;;;;;14.50;74.13;97964.25;10447484;28;20415;-62
2023/09/16 05:02:23;;;;;;;6.28;4.50;;;;;;;14.92;73.82;97973.56;10447864;28;20502;-62
2023/09/16 05:07:44;;;;;;;7.63;4.15;;;;;;;15.49;73.39;97968.84;10462195;28;20053;-62
2023/09/16 05:13:05;;;;;;;5.47;3.60;;;;;;;16.38;73.59;97975.44;10458106;28;20076;-63
2023/09/16 05:18:28;;;;;;;5.90;3.90;;;;;;;20.28;66.96;97968.06;10443077;28;20118;-63
2023/09/16 05:23:51;;;;;;;6.03;3.35;;;;;;;23.42;56.84;97967.97;10430765;28;20131;-63
2023/09/16 05:29:14;;;;;;;5.20;3.28;;;;;;;24.38;52.87;97972.63;10445406;28;20083;-63
2023/09/16 05:34:36;;;;;;;5.13;3.20;;;;;;;23.25;52.58;97969.75;10460024;28;20175;-63
2023/09/16 05:39:56;;;;;;;6.00;3.90;;;;;;;22.76;51.06;97962.94;10460722;28;20115;-63
2023/09/16 05:45:18;;;;;;;9.75;3.67;;;;;;;24.83;50.60;97969.06;10431943;28;20076;-64
2023/09/16 05:50:38;;;;;;;3.88;3.38;;;;;;;29.11;44.42;97969.00;10445137;28;20049;-63
2023/09/16 05:56:04;;;;;;;5.95;3.50;;;;;;;31.04;39.41;97967.81;10445332;28;20076;-64
2023/09/16 06:01:28;;;;;;;4.65;3.38;;;;;;;33.74;33.92;97981.72;10431661;28;20079;-64
2023/09/16 06:06:49;;;;;;;7.80;3.50;;;;;;;37.43;27.01;97969.75;10443562;28;20135;-65
2023/09/16 06:12:12;;;;;;;4.70;2.78;;;;;;;41.02;21.63;97962.84;10443053;28;20421;-65
2023/09/16 06:17:33;;;;;;;4.32;2.95;;;;;;;44.05;17.93;97968.84;10433907;28;20529;-65
2023/09/16 06:22:57;;;;;;;4.72;2.42;;;;;;;46.12;15.19;97968.66;10425107;28;20138;-65
2023/09/16 06:28:17;;;;;;;8.30;2.70;;;;;;;46.41;12.69;97969.50;10442990;28;20052;-67
2023/09/16 06:33:38;;;;;;;5.40;2.50;;;;;;;45.99;11.96;97967.44;10440440;28;21589;-65
2023/09/16 06:39:00;;;;;;;4.93;2.30;;;;;;;45.56;12.00;97965.31;10437192;28;20083;-67
2023/09/16 06:44:21;;;;;;;4.18;2.25;;;;;;;46.79;11.62;97948.91;10436556;28;20116;-67
2023/09/16 06:49:42;;;;;;;4.70;2.47;;;;;;;48.91;10.66;97952.56;10438681;28;20116;-65
2023/09/16 06:55:04;;;;;;;3.45;2.20;;;;;;;49.88;9.49;97948.63;10453609;28;20471;-68
2023/09/16 07:00:25;;;;;;;3.40;1.83;;;;;;;49.78;9.49;97940.63;10449279;28;20469;-67
2023/09/16 07:05:47;;;;;;;5.07;2.30;;;;;;;51.04;9.14;97943.91;10443089;28;20072;-68
2023/09/16 07:11:07;;;;;;;6.07;2.08;;;;;;;51.15;8.73;97941.38;10406412;28;20083;-69
2023/09/16 07:16:40;;;;;;;4.35;1.80;;;;;;;52.13;7.81;97946.09;10432770;28;20503;-69
2023/09/16 07:22:01;;;;;;;3.63;1.60;;;;;;;52.40;7.93;97941.16;10415626;28;20128;-68
2023/09/16 07:27:22;;;;;;;3.85;1.90;;;;;;;53.51;7.83;97940.22;10421623;28;20088;-69
2023/09/16 07:32:43;;;;;;;3.22;1.52;;;;;;;54.48;6.50;97926.75;10425207;28;20045;-68
2023/09/16 07:38:04;;;;;;;3.92;1.40;;;;;;;55.23;6.51;97928.97;10439341;28;20164;-67
2023/09/16 07:43:26;;;;;;;2.25;1.50;;;;;;;54.97;6.16;97935.59;10426065;28;20049;-68
2023/09/16 07:48:47;;;;;;;1.80;1.40;;;;;;;54.64;6.06;97929.56;10452297;28;20045;-68
2023/09/16 07:54:09;;;;;;;6.05;1.30;;;;;;;54.55;6.45;97936.44;10456495;28;20049;-68
2023/09/16 07:59:30;;;;;;;3.05;1.48;;;;;;;53.65;6.41;97932.72;10464370;28;20045;-68
2023/09/16 08:04:50;;;;;;;3.72;1.50;;;;;;;53.58;6.38;97929.03;10449907;28;20053;-69
2023/09/16 08:10:11;;;;;;;3.08;1.40;;;;;;;53.49;6.38;97922.56;10464293;28;20069;-68
2023/09/16 08:15:32;;;;;;;2.60;1.42;;;;;;;54.30;6.52;97913.81;10464224;28;20060;-69
2023/09/16 08:20:53;;;;;;;2.58;1.23;;;;;;;55.81;6.15;97912.56;10464291;28;20084;-69
2023/09/16 08:26:13;;;;;;;2.10;1.27;;;;;;;55.18;5.28;97910.09;10463670;28;20076;-69
2023/09/16 08:31:34;;;;;;;3.42;1.25;;;;;;;55.46;5.51;97915.16;10448733;28;20077;-70
2023/09/16 08:36:55;;;;;;;3.78;1.40;;;;;;;55.74;5.32;97917.19;10463586;28;20116;-69
2023/09/16 08:42:37;;;;;;;1.80;1.33;;;;;;;55.87;5.39;97908.84;10462953;28;20053;-69
2023/09/16 08:48:01;;;;;;;1.75;1.30;;;;;;;55.88;5.58;97903.53;10463217;28;20510;-69
2023/09/16 08:53:22;;;;;;;1.63;1.27;;;;;;;53.76;6.31;97906.19;10462768;28;20049;-69
2023/09/16 08:58:43;;;;;;;1.25;1.15;;;;;;;54.33;6.48;97917.94;10433572;28;20171;-68
2023/09/16 09:04:04;;;;;;;1.58;1.20;;;;;;;54.13;5.97;97923.16;10462519;28;20081;-69
2023/09/16 09:09:25;;;;;;;2.10;1.23;;;;;;;52.80;6.49;97913.22;10445858;28;20053;-69
2023/09/16 09:14:46;;;;;;;1.45;1.05;;;;;;;52.08;7.22;97904.13;10433071;28;20083;-68
2023/09/16 09:20:11;;;;;;;2.10;1.10;;;;;;;53.66;6.45;97898.31;10446838;28;20049;-69
2023/09/16 09:25:32;;;;;;;3.42;1.40;;;;;;;53.88;5.96;97904.91;10446418;28;20495;-68
2023/09/16 09:30:53;;;;;;;1.75;1.25;;;;;;;53.02;6.77;97901.28;10446334;28;20075;-68
2023/09/16 09:36:15;;;;;;;1.88;1.10;;;;;;;53.28;6.85;97897.13;10460789;28;20132;-68
2023/09/16 09:41:45;;;;;;;1.75;1.13;;;;;;;52.04;7.34;97895.59;10460844;28;20552;-69
2023/09/16 09:47:06;;;;;;;2.28;1.10;;;;;;;51.25;7.46;97898.06;10460775;28;20065;-68
2023/09/16 09:52:28;;;;;;;2.00;0.90;;;;;;;51.59;7.72;97891.09;10460358;28;20045;-69
2023/09/16 09:57:49;;;;;;;3.33;1.40;;;;;;;49.43;8.31;97887.38;10445725;28;20053;-68
2023/09/16 10:03:10;;;;;;;2.50;1.00;;;;;;;49.29;8.74;97880.41;10460051;28;20064;-69
2023/09/16 10:08:32;;;;;;;4.60;1.08;;;;;;;51.36;8.40;97880.66;10459779;28;20097;-69
2023/09/16 10:13:53;;;;;;;1.63;1.15;;;;;;;53.53;7.23;97874.38;10459835;28;20394;-69
2023/09/16 10:19:14;;;;;;;2.42;1.02;;;;;;;54.12;6.92;97871.03;10459732;28;20098;-69
2023/09/16 10:24:36;;;;;;;3.67;1.50;;;;;;;54.09;6.92;97866.91;10416831;28;20111;-69
2023/09/16 10:29:57;;;;;;;3.17;1.45;;;;;;;53.55;6.70;97853.28;10458888;28;20055;-68
2023/09/16 10:35:19;;;;;;;2.85;1.20;;;;;;;53.95;6.53;97845.91;10430219;28;20037;-69
2023/09/16 10:40:40;;;;;;;2.00;1.00;;;;;;;51.89;7.20;97853.97;10443660;28;20057;-69
2023/09/16 10:46:01;;;;;;;1.17;0.85;;;;;;;49.22;8.53;97843.97;10429440;28;20515;-68
2023/09/16 10:51:22;;;;;;;1.58;0.68;;;;;;;49.42;9.03;97837.84;10458449;28;20049;-69
2023/09/16 10:56:43;;;;;;;3.35;0.80;;;;;;;49.85;9.01;97838.34;10457779;28;20399;-69
2023/09/16 11:02:10;;;;;;;1.83;0.73;;;;;;;49.39;8.92;97849.19;10457615;28;20048;-68
2023/09/16 11:07:31;;;;;;;1.77;0.80;;;;;;;48.26;9.48;97839.66;10442562;28;20491;-68
2023/09/16 11:12:52;;;;;;;1.80;0.63;;;;;;;48.04;9.85;97827.44;10457401;28;20049;-68
2023/09/16 11:18:16;;;;;;;1.40;0.80;;;;;;;46.58;10.68;97825.09;10456915;28;20049;-67
2023/09/16 11:23:38;;;;;;;1.30;0.50;;;;;;;47.77;9.86;97817.09;10456974;28;20049;-68
2023/09/16 11:28:59;;;;;;;1.30;0.65;;;;;;;47.16;10.38;97804.28;10456067;28;20483;-68
2023/09/16 11:34:22;;;;;;;2.00;0.75;;;;;;;47.61;10.21;97792.53;10441576;28;20049;-68
2023/09/16 11:39:46;;;;;;;1.27;0.88;;;;;;;46.59;9.81;97794.00;10441312;28;20053;-66
2023/09/16 11:45:08;;;;;;;4.05;1.30;;;;;;;43.20;12.58;97795.03;10442564;28;20394;-68
2023/09/16 11:50:29;;;;;;;2.17;1.52;;;;;;;37.94;16.66;97787.28;10456587;28;20080;-65
2023/09/16 11:55:50;;;;;;;5.18;1.50;;;;;;;35.51;19.54;97780.75;10456368;28;20048;-67
2023/09/16 12:01:11;;;;;;;2.33;1.58;;;;;;;33.96;22.09;97789.47;10456256;28;20048;-65
2023/09/16 12:06:35;;;;;;;4.78;1.70;;;;;;;33.30;22.88;97788.09;10441092;28;20057;-65
2023/09/16 12:11:56;;;;;;;3.88;1.60;;;;;;;32.38;23.73;97785.63;10441443;28;20447;-65
2023/09/16 12:17:18;;;;;;;4.65;1.10;;;;;;;31.70;24.56;97773.78;10456706;28;20112;-64
2023/09/16 12:22:39;;;;;;;2.08;1.52;;;;;;;30.83;27.22;97776.41;10441490;28;20055;-65
2023/09/16 12:28:00;;;;;;;2.47;1.80;;;;;;;29.95;27.86;97761.50;10427657;28;20290;-65
2023/09/16 12:33:36;;;;;;;4.53;1.67;;;;;;;30.01;29.13;97764.31;10455306;28;20079;-64
2023/09/16 12:39:00;;;;;;;4.13;1.83;;;;;;;30.63;27.84;97754.31;10428655;28;20069;-64
2023/09/16 12:44:21;;;;;;;3.10;1.30;;;;;;;29.69;29.02;97754.53;10434170;28;20056;-65
2023/09/16 12:49:43;;;;;;;2.93;1.37;;;;;;;30.30;28.64;97751.06;10462825;28;20411;-65
2023/09/16 12:55:10;;;;;;;3.33;1.73;;;;;;;30.62;27.76;97763.69;10462774;28;20049;-65
2023/09/16 13:00:32;;;;;;;2.15;1.83;;;;;;;29.79;28.73;97739.34;10462600;28;20049;-64
2023/09/16 13:05:54;;;;;;;3.30;1.52;;;;;;;29.98;29.46;97737.00;10461874;28;20049;-64
2023/09/16 13:11:16;;;;;;;2.78;1.50;;;;;;;29.66;29.62;97738.03;10462087;28;20049;-65
2023/09/16 13:16:38;;;;;;;1.55;1.17;;;;;;;28.83;29.60;97742.09;10447563;28;20056;-64
2023/09/16 13:22:02;;;;;;;3.47;1.80;;;;;;;27.83;31.23;97742.38;10461667;28;20049;-64
2023/09/16 13:27:23;;;;;;;2.83;1.45;;;;;;;27.13;32.51;97735.16;10461122;28;20529;-64
2023/09/16 13:32:54;;;;;;;3.33;1.57;;;;;;;26.86;33.71;97735.06;10446919;28;20041;-65
2023/09/16 13:38:15;;;;;;;1.80;1.10;;;;;;;26.63;33.91;97730.66;10461176;28;20068;-64
2023/09/16 13:43:36;;;;;;;2.45;1.50;;;;;;;26.50;34.19;97729.91;10460821;28;20052;-64
2023/09/16 13:48:57;;;;;;;5.15;1.35;;;;;;;26.85;34.01;97727.19;10460604;28;20056;-64
2023/09/16 13:54:18;;;;;;;1.42;1.15;;;;;;;26.79;33.51;97719.28;10459839;28;20124;-64
2023/09/16 13:59:39;;;;;;;1.92;1.33;;;;;;;26.85;33.87;97725.03;10460298;28;20541;-64
2023/09/16 14:04:59;;;;;;;3.38;1.17;;;;;;;26.96;33.16;97717.19;10444905;28;20499;-64
2023/09/16 14:10:26;;;;;;;1.55;1.30;;;;;;;27.25;32.95;97715.81;10459561;28;20483;-64
2023/09/16 14:15:47;;;;;;;1.60;1.20;;;;;;;27.87;32.57;97707.94;10459249;28;20067;-64
2023/09/16 14:21:09;;;;;;;1.53;0.90;;;;;;;28.16;32.02;97700.69;10430749;28;20041;-64
2023/09/16 14:26:31;;;;;;;2.17;1.40;;;;;;;27.93;31.90;97707.94;10444308;28;20041;-64
2023/09/16 14:31:53;;;;;;;1.70;1.20;;;;;;;28.12;31.47;97700.00;10443645;28;20179;-64
2023/09/16 14:37:14;;;;;;;1.93;1.20;;;;;;;28.42;31.47;97688.44;10443934;28;20049;-64
2023/09/16 14:42:35;;;;;;;1.42;1.00;;;;;;;28.64;31.19;97687.63;10458292;28;20044;-64
2023/09/16 14:47:56;;;;;;;2.57;0.90;;;;;;;28.85;30.75;97673.16;10443236;28;20048;-64
2023/09/16 14:53:18;;;;;;;3.63;1.20;;;;;;;28.71;30.87;97671.09;10443564;28;20053;-64
2023/09/16 14:58:40;;;;;;;1.33;1.00;;;;;;;28.57;30.73;97676.88;10457776;28;20049;-65
2023/09/16 15:04:01;;;;;;;;;;;;;;;27.92;31.23;97675.69;10457302;28;20059;-64
2023/09/16 15:09:23;;;;;;;2.20;1.10;;;;;;;27.36;32.94;97687.88;10442690;28;19921;-64
2023/09/16 15:14:44;;;;;;;2.28;1.25;;;;;;;26.68;33.42;97677.75;10457812;28;20048;-64
2023/09/16 15:20:07;;;;;;;1.20;1.00;;;;;;;26.34;33.44;97670.44;10442742;28;20079;-64
2023/09/16 15:25:28;;;;;;;1.98;1.10;;;;;;;26.07;34.04;97666.03;10456849;28;20155;-63
2023/09/16 15:30:52;;;;;;;1.57;1.03;;;;;;;26.03;34.24;97671.72;10442083;28;20045;-64
2023/09/16 15:36:13;;;;;;;2.50;1.20;;;;;;;25.92;34.21;97665.94;10456864;28;20487;-64
2023/09/16 15:41:36;;;;;;;1.98;1.10;;;;;;;25.91;34.09;97663.81;10456643;28;20049;-64
2023/09/16 15:46:57;;;;;;;5.50;1.20;;;;;;;25.80;34.30;97665.88;10456117;28;20049;-64
2023/09/16 15:52:19;;;;;;;2.80;1.05;;;;;;;25.68;34.87;97671.50;10456350;28;20037;-64
2023/09/16 15:57:43;;;;;;;2.40;1.00;;;;;;;25.48;35.12;97665.63;10455983;28;20522;-64
2023/09/16 16:03:05;;;;;;;4.35;1.00;;;;;;;25.47;35.51;97673.47;10456255;28;20056;-64
2023/09/16 16:08:27;;;;;;;3.47;1.00;;;;;;;25.26;35.76;97669.03;10441483;28;20053;-64
2023/09/16 16:13:48;;;;;;;1.20;1.00;;;;;;;25.14;36.06;97675.38;10455855;28;20095;-63
2023/09/16 16:19:11;;;;;;;3.03;1.20;;;;;;;25.06;36.14;97669.56;10463617;28;20049;-64
2023/09/16 16:24:31;;;;;;;2.43;1.20;;;;;;;24.97;36.92;97660.19;10463625;28;20049;-64
2023/09/16 16:29:52;;;;;;;2.15;1.13;;;;;;;24.95;36.75;97676.59;10462774;28;20103;-64
2023/09/16 16:35:14;;;;;;;1.80;1.30;;;;;;;24.85;36.73;97662.94;10448990;28;20049;-64
2023/09/16 16:40:35;;;;;;;3.25;1.08;;;;;;;24.81;36.85;97662.91;10448643;28;20106;-64
2023/09/16 16:45:56;;;;;;;5.00;1.60;;;;;;;24.76;37.13;97656.41;10462884;28;20056;-64
2023/09/16 16:51:18;;;;;;;3.35;1.40;;;;;;;24.58;37.26;97646.94;10462662;28;20064;-64
2023/09/16 16:56:40;;;;;;;4.88;1.67;;;;;;;24.44;37.60;97647.53;10462571;28;20396;-64
2023/09/16 17:02:04;;;;;;;3.33;1.45;;;;;;;24.23;37.87;97650.13;10462643;28;20041;-64
2023/09/16 17:07:25;;;;;;;5.03;2.13;;;;;;;23.90;38.29;97660.38;10406356;28;20073;-64
2023/09/16 17:12:46;;;;;;;6.10;2.22;;;;;;;23.61;38.95;97656.38;10406337;28;20064;-64
2023/09/16 17:18:09;;;;;;;4.45;1.90;;;;;;;23.39;39.29;97661.72;10420823;28;20479;-64
2023/09/16 17:23:30;;;;;;;3.28;1.70;;;;;;;23.06;39.88;97683.25;10405996;28;20045;-64
2023/09/16 17:28:53;;;;;;;5.35;1.80;;;;;;;22.91;40.47;97678.72;10419150;28;20049;-64
2023/09/16 17:34:18;;;;;;;9.00;1.83;;;;;;;22.80;40.65;97687.03;10420095;28;20084;-64
2023/09/16 17:39:39;;;;;;;2.70;1.65;;;;;;;22.70;40.98;97691.81;10419847;28;20355;-64
2023/09/16 17:45:00;;;;;;;6.40;2.38;;;;;;;22.60;41.50;97703.00;10419391;28;20049;-64
2023/09/16 17:50:21;;;;;;;4.60;2.10;;;;;;;22.45;41.70;97702.72;10420024;28;20395;-64
2023/09/16 17:55:42;;;;;;;4.40;2.08;;;;;;;22.33;41.90;97716.69;10419167;28;20088;-64
2023/09/16 18:01:03;;;;;;;3.10;1.63;;;;;;;22.21;42.18;97725.69;10419066;28;20076;-64
2023/09/16 18:06:25;;;;;;;3.63;2.37;;;;;;;22.08;42.49;97717.56;10451503;28;20084;-63
2023/09/16 18:11:46;;;;;;;3.88;2.42;;;;;;;21.89;42.85;97733.44;10459860;28;20303;-63
2023/09/16 18:17:07;;;;;;;4.07;2.80;;;;;;;21.71;43.83;97731.66;10459381;28;20467;-63
2023/09/16 18:22:27;;;;;;;5.85;4.10;;;;;;;21.63;44.06;97742.81;10459216;28;20128;-64
2023/09/16 18:27:48;;;;;;;6.43;2.80;;;;;;;21.67;44.94;97742.19;10458957;28;20124;-64
2023/09/16 18:33:09;;;;;;;5.70;3.10;;;;;;;21.70;44.68;97740.81;10459189;28;20049;-64
2023/09/16 18:38:30;;;;;;;4.15;2.72;;;;;;;21.76;45.16;97743.09;10458578;28;20052;-64
2023/09/16 18:43:51;;;;;;;5.50;3.28;;;;;;;21.68;45.80;97746.47;10458339;28;20479;-64
2023/09/16 18:49:12;;;;;;;6.28;3.40;;;;;;;21.68;46.29;97749.31;10458756;28;20129;-63
2023/09/16 18:54:34;;;;;;;3.53;2.28;;;;;;;21.63;46.23;97747.78;10443364;28;20076;-63
2023/09/16 18:59:54;;;;;;;7.50;2.40;;;;;;;21.57;47.00;97741.94;10458024;28;20151;-64
2023/09/16 19:05:15;;;;;;;4.30;2.28;;;;;;;21.52;46.78;97751.75;10458380;28;20060;-64
2023/09/16 19:10:37;;;;;;;5.30;2.78;;;;;;;21.42;47.23;97747.28;10442628;28;20106;-64
2023/09/16 19:16:00;;;;;;;3.65;2.35;;;;;;;21.31;47.49;97744.84;10457627;28;20499;-64
2023/09/16 19:21:21;;;;;;;3.13;2.10;;;;;;;21.20;47.69;97748.78;10457319;28;20048;-64
2023/09/16 19:26:42;;;;;;;4.50;2.30;;;;;;;21.07;47.86;97739.97;10457149;28;20484;-64
2023/09/16 19:32:03;;;;;;;3.75;2.25;;;;;;;21.03;48.61;97748.34;10456589;28;20049;-63
2023/09/16 19:37:27;;;;;;;6.90;2.55;;;;;;;20.92;49.46;97754.44;10456774;28;20506;-63
2023/09/16 19:42:48;;;;;;;4.30;2.30;;;;;;;20.81;50.91;97750.59;10428214;28;20124;-63
2023/09/16 19:48:08;;;;;;;8.45;2.45;;;;;;;20.67;51.36;97756.63;10456419;28;20203;-63
2023/09/16 19:53:31;;;;;;;3.67;2.22;;;;;;;20.61;50.69;97762.09;10468717;28;20501;-63
2023/09/16 19:58:52;;;;;;;3.33;2.47;;;;;;;20.45;51.52;97762.34;10455153;28;20155;-63
2023/09/16 20:04:12;;;;;;;4.93;2.08;;;;;;;20.37;52.17;97755.72;10470004;28;20061;-63
2023/09/16 20:09:33;;;;;;;4.68;2.70;;;;;;;20.39;51.72;97769.94;10455032;28;20124;-63
2023/09/16 20:14:54;;;;;;;6.10;2.40;;;;;;;20.26;53.81;97763.91;10469938;28;20079;-63
2023/09/16 20:20:14;;;;;;;5.85;2.20;;;;;;;20.15;53.59;97758.59;10469873;28;20095;-63
2023/09/16 20:25:35;;;;;;;4.50;2.20;;;;;;;20.09;54.64;97756.31;10469495;28;20510;-63
2023/09/16 20:30:57;;;;;;;3.88;2.08;;;;;;;20.07;54.20;97758.34;10454876;28;20037;-63
2023/09/16 20:36:18;;;;;;;2.88;1.80;;;;;;;20.00;54.49;97754.63;10455270;28;20049;-63
2023/09/16 20:41:39;;;;;;;2.95;1.85;;;;;;;19.95;54.68;97762.25;10454588;28;20521;-63
2023/09/16 20:46:59;;;;;;;4.05;1.88;;;;;;;19.89;54.81;97767.75;10469153;28;20052;-63
2023/09/16 20:52:21;;;;;;;4.32;1.90;;;;;;;19.84;55.64;97756.94;10469265;28;20084;-63
2023/09/16 20:57:42;;;;;;;5.38;2.40;;;;;;;19.81;55.09;97761.09;10469124;28;20137;-63
2023/09/16 21:03:02;;;;;;;3.13;2.15;;;;;;;19.73;55.18;97762.28;10451257;28;20483;-63
2023/09/16 21:08:23;;;;;;;4.60;1.85;;;;;;;19.65;55.59;97764.88;10462361;28;20049;-63
2023/09/16 21:13:44;;;;;;;5.40;2.45;;;;;;;19.60;55.65;97768.97;10462125;28;20451;-63
2023/09/16 21:19:05;;;;;;;4.00;2.10;;;;;;;19.56;56.02;97771.66;10462173;28;20470;-63
2023/09/16 21:24:25;;;;;;;3.67;2.03;;;;;;;19.51;55.99;97767.22;10461683;28;20176;-63
2023/09/16 21:29:47;;;;;;;3.67;2.38;;;;;;;19.46;56.41;97768.44;10461605;28;20131;-63
2023/09/16 21:35:08;;;;;;;3.42;2.15;;;;;;;19.39;56.32;97758.31;10461224;28;20049;-63
2023/09/16 21:40:29;;;;;;;2.58;1.90;;;;;;;19.36;56.51;97765.28;10461210;28;20073;-63
2023/09/16 21:45:50;;;;;;;5.75;2.45;;;;;;;19.32;56.53;97768.00;10446205;28;20045;-63
2023/09/16 21:51:10;;;;;;;4.05;2.20;;;;;;;19.27;56.80;97769.22;10445870;28;20073;-63
2023/09/16 21:56:31;;;;;;;4.45;2.00;;;;;;;19.25;56.72;97763.50;10460737;28;20560;-63
2023/09/16 22:01:52;;;;;;;6.50;2.50;;;;;;;19.24;56.53;97762.06;10460241;28;20080;-63
2023/09/16 22:07:13;;;;;;;3.22;2.42;;;;;;;19.24;56.56;97765.59;10460591;28;20448;-63
2023/09/16 22:12:33;;;;;;;4.35;2.10;;;;;;;19.16;56.63;97760.41;10459415;28;20116;-63
2023/09/16 22:17:54;;;;;;;5.03;2.45;;;;;;;19.13;57.05;97770.19;10459842;28;20127;-63
2023/09/16 22:23:15;;;;;;;6.10;2.10;;;;;;;19.12;56.77;97768.03;10459635;28;20556;-63
2023/09/16 22:28:36;;;;;;;3.00;2.15;;;;;;;19.07;57.33;97772.81;10459688;28;20547;-63
2023/09/16 22:33:59;;;;;;;6.28;2.05;;;;;;;19.03;57.05;97764.19;10444391;28;20239;-63
2023/09/16 22:39:19;;;;;;;2.87;2.00;;;;;;;19.00;57.23;97782.47;10444031;28;20053;-63
2023/09/16 22:44:40;;;;;;;9.35;2.20;;;;;;;18.94;57.51;97773.06;10458671;28;20475;-63
2023/09/16 22:50:14;;;;;;;4.88;2.20;;;;;;;18.84;57.51;97765.66;10458357;28;20080;-63
2023/09/16 22:55:34;;;;;;;4.30;2.38;;;;;;;18.73;57.67;97771.63;10458284;28;20060;-63
2023/09/16 23:01:07;;;;;;;6.85;2.35;;;;;;;18.60;58.17;97771.13;10459304;28;20532;-63
2023/09/16 23:06:28;;;;;;;3.00;2.22;;;;;;;18.52;58.33;97770.81;10333560;28;20078;-64
2023/09/16 23:11:49;;;;;;;5.07;2.10;;;;;;;18.39;59.03;97779.50;10335030;28;20076;-64
2023/09/16 23:17:10;;;;;;;3.03;1.98;;;;;;;18.30;59.49;97773.56;10334758;28;20573;-64
2023/09/16 23:22:31;;;;;;;5.57;2.10;;;;;;;18.29;59.66;97777.75;10320751;28;20073;-64
2023/09/16 23:27:52;;;;;;;3.05;2.05;;;;;;;18.21;60.12;97776.72;10319390;28;20074;-63
2023/09/16 23:33:14;;;;;;;4.45;2.10;;;;;;;18.21;60.58;97777.44;10334934;28;20126;-63
2023/09/16 23:38:35;;;;;;;5.25;2.30;;;;;;;18.17;61.01;97779.41;10334330;28;20122;-63
2023/09/16 23:43:55;;;;;;;6.22;2.15;;;;;;;18.17;61.04;97779.41;10333993;28;20077;-63
2023/09/16 23:49:16;;;;;;;4.13;1.98;;;;;;;18.15;61.21;97773.69;10334004;28;20160;-63
2023/09/16 23:54:37;;;;;;;3.97;2.35;;;;;;;18.16;61.67;97770.19;10319618;28;20190;-64
2023/09/16 23:59:57;;;;;;;3.38;1.95;;;;;;;18.14;61.64;97763.72;10333802;28;20404;-64
